Westhampton, New York
Current Conditions -  °F | °C
As of 8:53 PM on Sunday 21 Dec 2014 (Local Time) from KFOK Reporting Station
Overcast Overcast  
Wind Chill: 32°   Ceiling: 900
Heat Index: 37°   Visibility: 8mi
Dew Point: 35°   Wind: 7mph
Humidity: 93%   Direction: 360°N
Pressure: 30.33"   Gusts: NA
Location:  40.84°N, 72.66°W
Report Text: KFOK 220153Z 36006KT 8SM OVC009 03/02 A3033 RMK AO2 SLP271 T00280017
Loading
Personal Weather Stations






























Interactive Weather Map New forecast layout! Learn more

10-Day Weather Forecast

Advertisements
Track Severe Weather on mobile